createdAt,value
2019-06-27T00:02:42.896Z,19.20
2019-06-27T00:05:48.117Z,18.37
2019-06-27T00:08:53.555Z,18.57
2019-06-27T00:11:58.583Z,19.40
2019-06-27T00:15:03.544Z,19.97
2019-06-27T00:18:08.485Z,19.17
2019-06-27T00:21:13.608Z,19.63
2019-06-27T00:24:18.543Z,19.93
2019-06-27T00:27:23.408Z,19.23
2019-06-27T00:30:28.334Z,19.77
2019-06-27T00:33:33.601Z,19.23
2019-06-27T00:36:38.500Z,21.03
2019-06-27T00:39:43.643Z,19.50
2019-06-27T00:42:48.577Z,19.37
2019-06-27T00:45:53.724Z,19.73
2019-06-27T00:48:59.520Z,20.08
2019-06-27T00:52:04.533Z,19.87
2019-06-27T00:55:10.076Z,20.53
2019-06-27T00:58:15.020Z,19.20
2019-06-27T01:01:19.849Z,21.03
2019-06-27T01:04:24.818Z,20.93
2019-06-27T01:07:29.817Z,20.60
2019-06-27T01:10:35.009Z,19.67
2019-06-27T01:13:40.108Z,19.77
2019-06-27T01:16:45.170Z,19.07
2019-06-27T01:19:50.165Z,20.03
2019-06-27T01:23:13.954Z,21.73
2019-06-27T01:26:18.879Z,21.10
2019-06-27T01:29:23.852Z,19.10
2019-06-27T01:32:28.755Z,20.30
2019-06-27T01:35:33.679Z,20.97
2019-06-27T01:38:38.640Z,21.00
2019-06-27T01:41:43.519Z,20.30
2019-06-27T01:45:15.991Z,19.67
2019-06-27T01:48:20.933Z,19.10
2019-06-27T01:51:26.034Z,20.37
2019-06-27T01:54:31.130Z,20.47
2019-06-27T01:57:46.241Z,21.20
2019-06-27T02:00:42.663Z,20.73
2019-06-27T02:03:47.369Z,21.17
2019-06-27T02:06:52.107Z,21.50
2019-06-27T02:09:57.090Z,21.20
2019-06-27T02:13:02.388Z,20.53
2019-06-27T02:16:07.366Z,20.23
2019-06-27T02:19:12.339Z,19.73
2019-06-27T02:22:17.486Z,20.77
2019-06-27T02:25:22.746Z,19.90
2019-06-27T02:28:27.723Z,20.50
2019-06-27T02:31:32.721Z,21.43
2019-06-27T02:34:37.540Z,20.67
2019-06-27T02:37:42.568Z,21.00
2019-06-27T02:40:47.675Z,20.63
2019-06-27T02:43:52.694Z,19.07
2019-06-27T02:46:57.681Z,20.27
2019-06-27T02:50:02.627Z,20.10
2019-06-27T02:53:07.708Z,21.77
2019-06-27T02:56:12.682Z,20.00
2019-06-27T02:59:17.773Z,20.70
2019-06-27T03:02:22.894Z,21.40
2019-06-27T03:05:27.827Z,20.30
2019-06-27T03:08:51.573Z,21.00
2019-06-27T03:12:00.037Z,21.70
2019-06-27T03:15:03.302Z,20.87
2019-06-27T03:18:09.737Z,21.63
2019-06-27T03:21:14.728Z,21.10
2019-06-27T03:24:19.751Z,20.87
2019-06-27T03:27:24.913Z,22.00
2019-06-27T03:30:29.754Z,21.97
2019-06-27T03:33:34.778Z,20.50
2019-06-27T03:36:39.933Z,21.33
2019-06-27T03:39:44.894Z,23.00
2019-06-27T03:42:50.201Z,21.63
2019-06-27T03:45:55.353Z,23.23
2019-06-27T03:49:00.474Z,21.10
2019-06-27T03:52:05.373Z,22.23
2019-06-27T03:55:12.616Z,22.13
2019-06-27T03:58:17.519Z,24.40
2019-06-27T04:01:22.470Z,22.70
2019-06-27T04:04:27.621Z,24.07
2019-06-27T04:07:32.743Z,24.53
2019-06-27T04:10:37.843Z,21.70
2019-06-27T04:13:43.018Z,22.07
2019-06-27T04:16:49.444Z,22.53
2019-06-27T04:19:54.751Z,23.07
2019-06-27T04:23:00.016Z,22.20
2019-06-27T04:26:05.074Z,24.17
2019-06-27T04:29:10.172Z,22.03
2019-06-27T04:32:15.420Z,23.33
2019-06-27T04:35:20.505Z,22.13
2019-06-27T04:38:25.707Z,22.53
2019-06-27T04:41:30.861Z,22.03
2019-06-27T04:44:35.711Z,22.00
2019-06-27T04:47:40.715Z,22.50
2019-06-27T04:50:45.878Z,21.67
2019-06-27T04:53:50.759Z,23.83
2019-06-27T04:56:55.648Z,21.97
2019-06-27T05:00:00.646Z,21.63
2019-06-27T05:03:05.608Z,20.47
2019-06-27T05:06:10.700Z,20.83
2019-06-27T05:09:15.920Z,24.07
2019-06-27T05:12:20.763Z,21.60
2019-06-27T05:15:25.828Z,21.23
2019-06-27T05:18:31.578Z,20.67
2019-06-27T05:21:36.882Z,21.20
2019-06-27T05:24:41.916Z,21.70
2019-06-27T05:27:47.064Z,21.80
2019-06-27T05:30:52.014Z,20.17
2019-06-27T05:33:57.059Z,23.63
2019-06-27T05:37:02.020Z,19.57
2019-06-27T05:40:07.101Z,18.50
2019-06-27T05:43:12.086Z,20.20
2019-06-27T05:46:17.782Z,20.83
2019-06-27T05:49:22.946Z,22.13
2019-06-27T05:52:28.117Z,21.63
2019-06-27T05:55:33.273Z,20.97
2019-06-27T05:58:38.459Z,19.97
2019-06-27T06:01:43.702Z,20.50
2019-06-27T06:04:48.736Z,21.20
2019-06-27T06:07:53.999Z,21.50
2019-06-27T06:10:59.007Z,22.17
2019-06-27T06:14:04.488Z,21.73
2019-06-27T06:17:09.623Z,21.13
2019-06-27T06:20:15.262Z,18.93
2019-06-27T06:23:20.348Z,19.13
2019-06-27T06:26:25.695Z,19.07
2019-06-27T06:29:30.709Z,20.03
2019-06-27T06:32:35.663Z,19.70
2019-06-27T06:35:40.787Z,20.17
2019-06-27T06:38:46.032Z,19.90
2019-06-27T06:41:50.981Z,22.03
2019-06-27T06:44:55.927Z,16.57
2019-06-27T06:48:01.050Z,16.27
2019-06-27T06:51:06.040Z,15.57
2019-06-27T06:54:11.027Z,17.90
2019-06-27T06:57:16.061Z,19.17
2019-06-27T07:00:21.457Z,19.40
2019-06-27T07:03:26.594Z,20.90
2019-06-27T07:06:31.722Z,17.83
2019-06-27T07:09:36.672Z,18.75
2019-06-27T07:12:41.492Z,18.65
2019-06-27T07:15:46.483Z,19.70
2019-06-27T07:18:51.527Z,18.48
2019-06-27T07:21:56.530Z,17.45
2019-06-27T07:25:01.979Z,20.02
2019-06-27T07:28:07.291Z,19.40
2019-06-27T07:31:17.807Z,19.03
2019-06-27T07:34:19.168Z,18.13
2019-06-27T07:37:24.303Z,18.55
2019-06-27T07:40:29.485Z,18.48
2019-06-27T07:43:34.426Z,17.60
2019-06-27T07:46:39.598Z,17.32
2019-06-27T07:49:44.697Z,17.47
2019-06-27T07:52:49.639Z,18.37
2019-06-27T07:55:54.756Z,21.52
2019-06-27T07:58:59.752Z,20.35
2019-06-27T08:02:04.640Z,22.85
2019-06-27T08:05:10.396Z,20.92
2019-06-27T08:08:15.285Z,20.10
2019-06-27T08:11:20.379Z,21.35
2019-06-27T08:14:25.744Z,18.70
2019-06-27T08:17:31.201Z,18.27
2019-06-27T08:20:36.286Z,17.73
2019-06-27T08:23:42.132Z,17.35
2019-06-27T08:26:47.214Z,17.67
2019-06-27T08:29:52.111Z,18.98
2019-06-27T08:32:57.204Z,18.60
2019-06-27T08:36:02.450Z,18.98
2019-06-27T08:39:07.986Z,19.48
2019-06-27T08:42:12.924Z,21.93
2019-06-27T08:45:17.957Z,19.35
2019-06-27T08:48:22.928Z,18.30
2019-06-27T08:51:27.844Z,18.23
2019-06-27T08:54:32.968Z,20.10
2019-06-27T08:57:37.911Z,18.85
2019-06-27T09:00:45.847Z,18.75
2019-06-27T09:03:49.809Z,17.90
2019-06-27T09:06:57.414Z,18.55
2019-06-27T09:10:02.628Z,17.80
2019-06-27T09:13:07.902Z,21.07
2019-06-27T09:16:12.947Z,19.10
2019-06-27T09:19:17.916Z,18.47
2019-06-27T09:22:23.045Z,19.20
2019-06-27T09:25:28.093Z,18.45
2019-06-27T09:28:33.132Z,16.15
2019-06-27T09:31:38.148Z,18.67
2019-06-27T09:34:43.012Z,17.25
2019-06-27T09:37:48.088Z,17.23
2019-06-27T09:40:53.298Z,18.50
2019-06-27T09:43:58.383Z,19.60
2019-06-27T09:47:03.369Z,17.12
2019-06-27T09:50:09.099Z,17.65
2019-06-27T09:53:14.468Z,18.05
2019-06-27T09:56:38.431Z,17.60
2019-06-27T09:59:46.397Z,16.65
2019-06-27T10:02:51.388Z,15.72
2019-06-27T10:05:56.548Z,16.62
2019-06-27T10:09:01.552Z,17.27
2019-06-27T10:12:06.736Z,16.90
2019-06-27T10:15:11.824Z,17.05
2019-06-27T10:18:16.910Z,16.57
2019-06-27T10:21:21.945Z,15.72
2019-06-27T10:24:27.224Z,13.10
2019-06-27T10:27:32.341Z,12.50
2019-06-27T10:30:37.170Z,14.50
2019-06-27T10:33:42.106Z,15.45
2019-06-27T10:36:47.077Z,15.78
2019-06-27T10:39:52.271Z,14.73
2019-06-27T10:42:57.437Z,16.10
2019-06-27T10:46:02.112Z,14.75
2019-06-27T10:49:06.908Z,15.45
2019-06-27T10:52:11.994Z,17.03
2019-06-27T10:55:17.173Z,14.35
2019-06-27T10:58:22.014Z,14.90
2019-06-27T11:01:27.065Z,13.00
2019-06-27T11:04:32.130Z,11.85
2019-06-27T11:07:40.596Z,13.18
2019-06-27T11:10:43.823Z,11.80
2019-06-27T11:13:58.246Z,12.23
2019-06-27T11:16:55.631Z,12.20
2019-06-27T11:20:00.791Z,10.85
2019-06-27T11:23:06.028Z,12.10
2019-06-27T11:26:11.022Z,11.35
2019-06-27T11:29:16.121Z,15.30
2019-06-27T11:32:21.082Z,15.98
2019-06-27T11:35:27.081Z,14.35
2019-06-27T11:38:32.256Z,10.75
2019-06-27T11:41:37.339Z,12.07
2019-06-27T11:44:42.332Z,18.07
2019-06-27T11:47:47.630Z,16.45
2019-06-27T11:50:52.877Z,13.75
2019-06-27T11:53:57.873Z,13.22
2019-06-27T11:57:02.862Z,12.58
2019-06-27T12:00:08.078Z,12.03
2019-06-27T12:03:13.153Z,12.05
2019-06-27T12:06:18.491Z,12.37
2019-06-27T12:09:24.044Z,12.58
2019-06-27T12:12:29.184Z,14.20
2019-06-27T12:15:37.187Z,14.65
2019-06-27T12:18:42.161Z,12.65
2019-06-27T12:21:47.201Z,12.00
2019-06-27T12:24:52.279Z,12.80
2019-06-27T12:27:57.429Z,11.83
2019-06-27T12:31:19.281Z,11.56
2019-06-27T12:34:09.790Z,13.53
2019-06-27T12:37:14.864Z,11.25
2019-06-27T12:40:20.939Z,14.13
2019-06-27T12:43:26.131Z,12.05
2019-06-27T12:46:37.394Z,14.40
2019-06-27T12:50:00.647Z,13.50
2019-06-27T12:52:49.146Z,13.28
2019-06-27T12:55:54.404Z,11.40
2019-06-27T12:58:59.617Z,13.03
2019-06-27T13:02:04.869Z,15.45
2019-06-27T13:05:10.644Z,11.88
2019-06-27T13:08:15.681Z,11.05
2019-06-27T13:11:20.777Z,11.38
2019-06-27T13:14:25.884Z,11.78
2019-06-27T13:17:31.135Z,11.08
2019-06-27T13:20:36.067Z,10.68
2019-06-27T13:23:41.207Z,13.78
2019-06-27T13:26:46.177Z,14.40
2019-06-27T13:29:51.464Z,9.98
2019-06-27T13:32:56.521Z,11.00
2019-06-27T13:36:01.758Z,13.22
2019-06-27T13:39:07.306Z,10.40
2019-06-27T13:42:12.501Z,11.60
2019-06-27T13:45:17.686Z,13.22
2019-06-27T13:48:22.679Z,12.33
2019-06-27T13:51:27.816Z,13.30
2019-06-27T13:54:32.696Z,15.25
2019-06-27T13:57:37.721Z,11.05
2019-06-27T14:00:45.026Z,11.53
2019-06-27T14:03:50.273Z,17.50
2019-06-27T14:06:55.333Z,15.18
2019-06-27T14:10:00.494Z,16.42
2019-06-27T14:13:05.484Z,16.57
2019-06-27T14:16:10.417Z,14.53
2019-06-27T14:19:15.479Z,17.87
2019-06-27T14:22:32.751Z,15.63
2019-06-27T14:25:27.248Z,18.30
2019-06-27T14:28:32.247Z,18.23
2019-06-27T14:31:37.325Z,16.63
2019-06-27T14:34:42.507Z,15.90
2019-06-27T14:37:47.375Z,17.50
2019-06-27T14:40:52.350Z,16.87
2019-06-27T14:43:57.319Z,17.23
2019-06-27T14:47:02.269Z,16.83
2019-06-27T14:50:07.659Z,16.97
2019-06-27T14:53:12.955Z,18.17
2019-06-27T14:56:17.993Z,16.70
2019-06-27T14:59:23.409Z,17.47
2019-06-27T15:02:29.274Z,16.87
2019-06-27T15:05:34.353Z,17.07
2019-06-27T15:08:39.393Z,17.23
2019-06-27T15:11:44.386Z,15.77
2019-06-27T15:14:50.617Z,16.77
2019-06-27T15:17:55.644Z,15.80
2019-06-27T15:21:00.567Z,16.23
2019-06-27T15:24:06.275Z,15.70
2019-06-27T15:27:11.853Z,16.43
2019-06-27T15:30:18.331Z,15.00
2019-06-27T15:33:23.280Z,15.40
2019-06-27T15:36:28.415Z,16.10
2019-06-27T15:39:33.572Z,17.33
2019-06-27T15:42:38.808Z,17.53
2019-06-27T15:45:45.594Z,18.93
2019-06-27T15:48:50.653Z,18.97
2019-06-27T15:51:59.482Z,18.17
2019-06-27T15:55:02.646Z,16.27
2019-06-27T15:58:07.834Z,15.13
2019-06-27T16:01:12.983Z,16.70
2019-06-27T16:04:30.211Z,15.60
2019-06-27T16:07:24.829Z,15.30
2019-06-27T16:10:30.213Z,15.60
2019-06-27T16:13:35.565Z,15.30
2019-06-27T16:16:40.730Z,14.73
2019-06-27T16:19:46.181Z,13.30
2019-06-27T16:22:51.247Z,13.50
2019-06-27T16:25:56.321Z,14.33
2019-06-27T16:29:01.267Z,13.53
2019-06-27T16:32:06.251Z,15.00
2019-06-27T16:35:12.886Z,15.43
2019-06-27T16:38:18.322Z,16.00
2019-06-27T16:41:23.332Z,13.93
2019-06-27T16:44:28.849Z,14.97
2019-06-27T16:47:34.052Z,15.57
2019-06-27T16:50:39.034Z,13.83
2019-06-27T16:53:47.337Z,15.00
2019-06-27T16:56:52.282Z,14.23
2019-06-27T16:59:57.234Z,14.07
2019-06-27T17:03:02.411Z,14.97
2019-06-27T17:06:07.634Z,15.10
2019-06-27T17:09:12.788Z,14.80
2019-06-27T17:12:17.807Z,14.83
2019-06-27T17:15:22.970Z,15.10
2019-06-27T17:18:27.971Z,14.60
2019-06-27T17:21:32.710Z,15.57
2019-06-27T17:24:37.793Z,14.50
2019-06-27T17:27:43.407Z,15.03
2019-06-27T17:30:51.461Z,17.53
2019-06-27T17:33:56.450Z,15.07
2019-06-27T17:37:01.405Z,15.70
2019-06-27T17:40:09.866Z,15.50
2019-06-27T17:43:13.798Z,16.23
2019-06-27T17:46:18.922Z,16.30
2019-06-27T17:49:24.268Z,16.03
2019-06-27T17:52:31.426Z,16.53
2019-06-27T17:55:36.404Z,19.20
2019-06-27T17:58:41.355Z,19.90
2019-06-27T18:01:46.662Z,19.05
2019-06-27T18:04:51.583Z,19.37
2019-06-27T18:07:56.724Z,17.80
2019-06-27T18:11:01.628Z,32.00
2019-06-27T18:14:06.766Z,19.10
2019-06-27T18:17:11.990Z,18.90
2019-06-27T18:20:17.254Z,19.23
2019-06-27T18:23:22.358Z,17.67
2019-06-27T18:26:28.032Z,18.27
2019-06-27T18:29:33.034Z,16.77
2019-06-27T18:32:38.132Z,18.10
2019-06-27T18:35:42.882Z,17.43
2019-06-27T18:38:47.916Z,17.77
2019-06-27T18:41:52.998Z,17.03
2019-06-27T18:44:57.960Z,17.23
2019-06-27T18:48:03.030Z,17.10
2019-06-27T18:51:08.194Z,18.10
2019-06-27T18:54:13.089Z,16.47
2019-06-27T18:57:18.043Z,18.43
2019-06-27T19:00:23.131Z,18.20
2019-06-27T19:03:28.076Z,17.37
2019-06-27T19:06:33.097Z,18.00
2019-06-27T19:09:38.121Z,17.17
2019-06-27T19:12:43.461Z,16.10
2019-06-27T19:15:48.586Z,18.70
2019-06-27T19:18:57.347Z,19.00
2019-06-27T19:22:39.083Z,19.83
2019-06-27T19:25:45.323Z,19.90
2019-06-27T19:28:50.394Z,19.17
2019-06-27T19:31:57.781Z,17.80
2019-06-27T19:35:02.856Z,17.80
2019-06-27T19:38:07.960Z,18.90
2019-06-27T19:41:13.013Z,18.07
2019-06-27T19:44:18.015Z,23.07
2019-06-27T19:47:23.038Z,19.23
2019-06-27T19:50:30.908Z,19.80
2019-06-27T19:53:35.925Z,18.97
2019-06-27T19:56:40.663Z,20.37
2019-06-27T19:59:46.043Z,18.35
2019-06-27T20:02:50.808Z,19.77
2019-06-27T20:05:55.630Z,19.27
2019-06-27T20:09:00.575Z,20.00
2019-06-27T20:12:05.745Z,19.73
2019-06-27T20:15:10.942Z,19.30
2019-06-27T20:18:15.723Z,20.10
2019-06-27T20:21:20.634Z,20.30
2019-06-27T20:24:25.552Z,19.87
2019-06-27T20:27:30.400Z,18.30
2019-06-27T20:30:35.230Z,18.47
2019-06-27T20:33:40.092Z,17.63
2019-06-27T20:36:45.241Z,20.13
2019-06-27T20:39:50.569Z,20.63
2019-06-27T20:42:55.703Z,19.23
2019-06-27T20:46:01.273Z,18.20
2019-06-27T20:49:06.190Z,18.70
2019-06-27T20:52:10.951Z,18.13
2019-06-27T20:55:15.771Z,19.10
2019-06-27T20:58:20.607Z,19.67
2019-06-27T21:01:25.495Z,19.33
2019-06-27T21:04:30.179Z,19.70
2019-06-27T21:07:35.457Z,19.60
2019-06-27T21:10:40.552Z,19.00
2019-06-27T21:13:45.698Z,18.63
2019-06-27T21:16:50.634Z,20.00
2019-06-27T21:19:55.605Z,18.07
2019-06-27T21:23:00.460Z,18.37
2019-06-27T21:26:06.069Z,19.63
2019-06-27T21:29:11.395Z,19.53
2019-06-27T21:32:30.587Z,18.97
2019-06-27T21:35:23.042Z,19.17
2019-06-27T21:38:28.039Z,19.20
2019-06-27T21:41:32.997Z,19.30
2019-06-27T21:44:38.518Z,23.30
2019-06-27T21:47:43.807Z,19.53
2019-06-27T21:50:48.873Z,17.60
2019-06-27T21:53:53.893Z,18.33
2019-06-27T21:56:58.955Z,19.67
2019-06-27T22:00:04.951Z,18.93
2019-06-27T22:03:10.198Z,18.20
2019-06-27T22:06:15.130Z,17.57
2019-06-27T22:09:24.986Z,17.40
2019-06-27T22:12:27.019Z,17.73
2019-06-27T22:15:32.546Z,18.10
2019-06-27T22:18:37.396Z,18.60
2019-06-27T22:21:42.754Z,18.53
2019-06-27T22:24:47.681Z,18.93
2019-06-27T22:27:53.959Z,19.63
2019-06-27T22:30:58.864Z,19.23
2019-06-27T22:34:03.870Z,18.63
2019-06-27T22:37:09.039Z,19.67
2019-06-27T22:40:32.016Z,19.00
2019-06-27T22:43:54.880Z,18.33
2019-06-27T22:47:18.056Z,19.33
2019-06-27T22:50:37.265Z,19.70
2019-06-27T22:53:51.754Z,19.13
2019-06-27T22:56:56.862Z,18.83
2019-06-27T23:00:01.922Z,17.97
2019-06-27T23:03:09.122Z,15.53
2019-06-27T23:06:14.432Z,13.13
2019-06-27T23:09:19.383Z,13.23
2019-06-27T23:12:24.652Z,19.73
2019-06-27T23:15:29.784Z,13.70
2019-06-27T23:18:38.552Z,13.00
2019-06-27T23:21:43.461Z,10.87
2019-06-27T23:24:48.576Z,11.67
2019-06-27T23:27:53.658Z,13.30
2019-06-27T23:30:58.657Z,13.37
2019-06-27T23:34:03.897Z,12.90
2019-06-27T23:37:08.874Z,14.20
2019-06-27T23:40:15.158Z,14.87
2019-06-27T23:43:20.370Z,14.07
2019-06-27T23:46:41.933Z,15.87
2019-06-27T23:49:47.020Z,16.67
2019-06-27T23:52:51.975Z,16.03
2019-06-27T23:55:57.073Z,16.33
2019-06-27T23:59:02.082Z,17.40
